sensor_id;sensor_type;location;lat;lon;timestamp;temperature;humidity
38265;DHT22;24062;47.480;8.768;2022-09-09T00:01:43;14.60;64.40
38265;DHT22;24062;47.480;8.768;2022-09-09T00:04:16;14.60;64.60
38265;DHT22;24062;47.480;8.768;2022-09-09T00:06:51;14.60;64.70
38265;DHT22;24062;47.480;8.768;2022-09-09T00:09:27;14.60;64.90
38265;DHT22;24062;47.480;8.768;2022-09-09T00:11:57;14.60;64.90
38265;DHT22;24062;47.480;8.768;2022-09-09T00:14:35;14.70;65.20
38265;DHT22;24062;47.480;8.768;2022-09-09T00:17:08;14.80;65.50
38265;DHT22;24062;47.480;8.768;2022-09-09T00:19:41;14.80;65.50
38265;DHT22;24062;47.480;8.768;2022-09-09T00:22:16;14.90;65.80
38265;DHT22;24062;47.480;8.768;2022-09-09T00:24:46;14.90;65.90
38265;DHT22;24062;47.480;8.768;2022-09-09T00:27:19;15.10;66.10
38265;DHT22;24062;47.480;8.768;2022-09-09T00:29:53;15.00;66.00
38265;DHT22;24062;47.480;8.768;2022-09-09T00:32:22;15.10;66.10
38265;DHT22;24062;47.480;8.768;2022-09-09T00:34:54;15.20;66.20
38265;DHT22;24062;47.480;8.768;2022-09-09T00:37:23;15.20;66.20
38265;DHT22;24062;47.480;8.768;2022-09-09T00:39:55;15.20;66.20
38265;DHT22;24062;47.480;8.768;2022-09-09T00:42:25;15.20;66.30
38265;DHT22;24062;47.480;8.768;2022-09-09T00:44:58;15.20;66.40
38265;DHT22;24062;47.480;8.768;2022-09-09T00:47:43;15.20;66.40
38265;DHT22;24062;47.480;8.768;2022-09-09T00:50:22;15.20;66.70
38265;DHT22;24062;47.480;8.768;2022-09-09T00:53:02;15.20;66.60
38265;DHT22;24062;47.480;8.768;2022-09-09T00:55:40;15.20;66.70
38265;DHT22;24062;47.480;8.768;2022-09-09T00:58:09;15.30;67.10
38265;DHT22;24062;47.480;8.768;2022-09-09T01:00:41;15.40;67.10
38265;DHT22;24062;47.480;8.768;2022-09-09T01:03:19;15.40;67.20
38265;DHT22;24062;47.480;8.768;2022-09-09T01:05:59;15.50;67.30
38265;DHT22;24062;47.480;8.768;2022-09-09T01:08:52;15.50;67.10
38265;DHT22;24062;47.480;8.768;2022-09-09T01:11:27;15.40;67.00
38265;DHT22;24062;47.480;8.768;2022-09-09T01:14:01;15.30;66.70
38265;DHT22;24062;47.480;8.768;2022-09-09T01:16:30;15.20;66.90
38265;DHT22;24062;47.480;8.768;2022-09-09T01:18:58;15.10;66.90
38265;DHT22;24062;47.480;8.768;2022-09-09T01:21:34;15.10;67.10
38265;DHT22;24062;47.480;8.768;2022-09-09T01:24:18;14.90;67.20
38265;DHT22;24062;47.480;8.768;2022-09-09T01:26:49;14.90;67.50
38265;DHT22;24062;47.480;8.768;2022-09-09T01:29:19;14.80;67.30
38265;DHT22;24062;47.480;8.768;2022-09-09T01:31:54;14.70;67.10
38265;DHT22;24062;47.480;8.768;2022-09-09T01:34:22;14.60;68.50
38265;DHT22;24062;47.480;8.768;2022-09-09T01:36:53;14.60;67.70
38265;DHT22;24062;47.480;8.768;2022-09-09T01:39:22;14.50;67.80
38265;DHT22;24062;47.480;8.768;2022-09-09T01:41:50;14.50;67.80
38265;DHT22;24062;47.480;8.768;2022-09-09T01:44:17;14.40;67.80
38265;DHT22;24062;47.480;8.768;2022-09-09T01:46:45;14.40;67.90
38265;DHT22;24062;47.480;8.768;2022-09-09T01:49:12;14.30;68.20
38265;DHT22;24062;47.480;8.768;2022-09-09T01:51:41;14.30;68.30
38265;DHT22;24062;47.480;8.768;2022-09-09T01:54:08;14.30;68.30
38265;DHT22;24062;47.480;8.768;2022-09-09T01:56:43;14.20;68.30
38265;DHT22;24062;47.480;8.768;2022-09-09T01:59:27;14.20;68.30
38265;DHT22;24062;47.480;8.768;2022-09-09T02:02:06;14.10;68.40
38265;DHT22;24062;47.480;8.768;2022-09-09T02:04:38;14.10;68.60
38265;DHT22;24062;47.480;8.768;2022-09-09T02:07:15;14.10;68.70
38265;DHT22;24062;47.480;8.768;2022-09-09T02:09:52;14.10;68.70
38265;DHT22;24062;47.480;8.768;2022-09-09T02:12:21;14.10;68.80
38265;DHT22;24062;47.480;8.768;2022-09-09T02:14:55;14.10;69.70
38265;DHT22;24062;47.480;8.768;2022-09-09T02:17:26;14.10;69.20
38265;DHT22;24062;47.480;8.768;2022-09-09T02:19:59;14.20;69.50
38265;DHT22;24062;47.480;8.768;2022-09-09T02:22:28;14.20;69.60
38265;DHT22;24062;47.480;8.768;2022-09-09T02:24:58;14.30;69.90
38265;DHT22;24062;47.480;8.768;2022-09-09T02:27:27;14.40;70.20
38265;DHT22;24062;47.480;8.768;2022-09-09T02:29:56;14.50;70.30
38265;DHT22;24062;47.480;8.768;2022-09-09T02:32:24;14.50;70.10
38265;DHT22;24062;47.480;8.768;2022-09-09T02:34:54;14.50;69.90
38265;DHT22;24062;47.480;8.768;2022-09-09T02:37:26;14.50;69.90
38265;DHT22;24062;47.480;8.768;2022-09-09T02:39:55;14.50;70.00
38265;DHT22;24062;47.480;8.768;2022-09-09T02:42:22;14.50;71.00
38265;DHT22;24062;47.480;8.768;2022-09-09T02:44:49;14.50;70.30
38265;DHT22;24062;47.480;8.768;2022-09-09T02:47:26;14.50;70.50
38265;DHT22;24062;47.480;8.768;2022-09-09T02:50:05;14.50;71.00
38265;DHT22;24062;47.480;8.768;2022-09-09T02:52:41;14.60;71.30
38265;DHT22;24062;47.480;8.768;2022-09-09T02:55:16;14.70;71.50
38265;DHT22;24062;47.480;8.768;2022-09-09T02:57:46;14.80;71.60
38265;DHT22;24062;47.480;8.768;2022-09-09T03:00:14;14.80;71.50
38265;DHT22;24062;47.480;8.768;2022-09-09T03:02:42;14.90;71.80
38265;DHT22;24062;47.480;8.768;2022-09-09T03:05:10;15.00;72.00
38265;DHT22;24062;47.480;8.768;2022-09-09T03:07:38;15.10;72.00
38265;DHT22;24062;47.480;8.768;2022-09-09T03:10:06;15.20;72.20
38265;DHT22;24062;47.480;8.768;2022-09-09T03:12:33;15.20;72.10
38265;DHT22;24062;47.480;8.768;2022-09-09T03:15:00;15.30;72.20
38265;DHT22;24062;47.480;8.768;2022-09-09T03:17:27;15.30;72.20
38265;DHT22;24062;47.480;8.768;2022-09-09T03:19:55;15.40;72.30
38265;DHT22;24062;47.480;8.768;2022-09-09T03:22:24;15.40;72.40
38265;DHT22;24062;47.480;8.768;2022-09-09T03:24:51;15.40;72.40
38265;DHT22;24062;47.480;8.768;2022-09-09T03:27:18;15.40;72.40
38265;DHT22;24062;47.480;8.768;2022-09-09T03:29:46;15.50;72.50
38265;DHT22;24062;47.480;8.768;2022-09-09T03:32:16;15.50;72.50
38265;DHT22;24062;47.480;8.768;2022-09-09T03:34:44;15.40;72.50
38265;DHT22;24062;47.480;8.768;2022-09-09T03:37:14;15.50;72.70
38265;DHT22;24062;47.480;8.768;2022-09-09T03:39:41;15.50;72.90
38265;DHT22;24062;47.480;8.768;2022-09-09T03:42:08;15.50;72.90
38265;DHT22;24062;47.480;8.768;2022-09-09T03:44:34;15.60;73.10
38265;DHT22;24062;47.480;8.768;2022-09-09T03:47:01;15.60;73.10
38265;DHT22;24062;47.480;8.768;2022-09-09T03:49:28;15.60;73.10
38265;DHT22;24062;47.480;8.768;2022-09-09T03:51:55;15.60;73.30
38265;DHT22;24062;47.480;8.768;2022-09-09T03:54:25;15.60;73.40
38265;DHT22;24062;47.480;8.768;2022-09-09T03:56:52;15.60;73.40
38265;DHT22;24062;47.480;8.768;2022-09-09T03:59:19;15.60;73.50
38265;DHT22;24062;47.480;8.768;2022-09-09T04:01:47;15.70;73.70
38265;DHT22;24062;47.480;8.768;2022-09-09T04:04:14;15.70;73.70
38265;DHT22;24062;47.480;8.768;2022-09-09T04:06:41;15.70;73.80
38265;DHT22;24062;47.480;8.768;2022-09-09T04:09:08;15.70;73.80
38265;DHT22;24062;47.480;8.768;2022-09-09T04:11:36;15.80;74.00
38265;DHT22;24062;47.480;8.768;2022-09-09T04:14:03;15.80;74.10
38265;DHT22;24062;47.480;8.768;2022-09-09T04:16:31;15.80;74.00
38265;DHT22;24062;47.480;8.768;2022-09-09T04:18:58;15.80;74.00
38265;DHT22;24062;47.480;8.768;2022-09-09T04:21:26;15.90;74.30
38265;DHT22;24062;47.480;8.768;2022-09-09T04:23:53;15.90;74.30
38265;DHT22;24062;47.480;8.768;2022-09-09T04:26:20;15.90;74.30
38265;DHT22;24062;47.480;8.768;2022-09-09T04:28:48;15.90;74.40
38265;DHT22;24062;47.480;8.768;2022-09-09T04:31:17;16.00;74.60
38265;DHT22;24062;47.480;8.768;2022-09-09T04:33:45;16.00;74.70
38265;DHT22;24062;47.480;8.768;2022-09-09T04:36:13;16.00;74.80
38265;DHT22;24062;47.480;8.768;2022-09-09T04:38:40;15.90;74.60
38265;DHT22;24062;47.480;8.768;2022-09-09T04:41:07;15.90;74.60
38265;DHT22;24062;47.480;8.768;2022-09-09T04:43:36;15.90;74.70
38265;DHT22;24062;47.480;8.768;2022-09-09T04:46:05;15.80;74.70
38265;DHT22;24062;47.480;8.768;2022-09-09T04:48:32;15.70;74.90
38265;DHT22;24062;47.480;8.768;2022-09-09T04:51:00;15.80;75.20
38265;DHT22;24062;47.480;8.768;2022-09-09T04:53:28;15.80;75.40
38265;DHT22;24062;47.480;8.768;2022-09-09T04:56:02;15.90;75.60
38265;DHT22;24062;47.480;8.768;2022-09-09T04:58:29;15.90;75.80
38265;DHT22;24062;47.480;8.768;2022-09-09T05:01:04;15.90;75.90
38265;DHT22;24062;47.480;8.768;2022-09-09T05:03:31;15.90;76.00
38265;DHT22;24062;47.480;8.768;2022-09-09T05:06:06;15.90;76.00
38265;DHT22;24062;47.480;8.768;2022-09-09T05:08:34;16.00;76.30
38265;DHT22;24062;47.480;8.768;2022-09-09T05:11:01;16.00;76.30
38265;DHT22;24062;47.480;8.768;2022-09-09T05:13:28;16.00;76.30
38265;DHT22;24062;47.480;8.768;2022-09-09T05:15:56;16.00;76.40
38265;DHT22;24062;47.480;8.768;2022-09-09T05:18:25;16.00;76.70
38265;DHT22;24062;47.480;8.768;2022-09-09T05:20:52;16.10;77.00
38265;DHT22;24062;47.480;8.768;2022-09-09T05:23:19;16.10;77.10
38265;DHT22;24062;47.480;8.768;2022-09-09T05:25:55;16.10;77.20
38265;DHT22;24062;47.480;8.768;2022-09-09T05:28:22;16.10;77.40
38265;DHT22;24062;47.480;8.768;2022-09-09T05:30:55;16.20;77.50
38265;DHT22;24062;47.480;8.768;2022-09-09T05:33:24;16.20;77.50
38265;DHT22;24062;47.480;8.768;2022-09-09T05:35:57;16.20;77.50
38265;DHT22;24062;47.480;8.768;2022-09-09T05:38:24;16.20;77.70
38265;DHT22;24062;47.480;8.768;2022-09-09T05:40:51;16.20;77.80
38265;DHT22;24062;47.480;8.768;2022-09-09T05:43:18;16.20;78.00
38265;DHT22;24062;47.480;8.768;2022-09-09T05:45:46;16.20;78.20
38265;DHT22;24062;47.480;8.768;2022-09-09T05:48:14;16.20;78.40
38265;DHT22;24062;47.480;8.768;2022-09-09T05:50:43;16.20;78.60
38265;DHT22;24062;47.480;8.768;2022-09-09T05:53:10;16.30;78.90
38265;DHT22;24062;47.480;8.768;2022-09-09T05:55:37;16.30;78.80
38265;DHT22;24062;47.480;8.768;2022-09-09T05:58:04;16.30;78.90
38265;DHT22;24062;47.480;8.768;2022-09-09T06:00:31;16.30;79.10
38265;DHT22;24062;47.480;8.768;2022-09-09T06:02:58;16.30;79.10
38265;DHT22;24062;47.480;8.768;2022-09-09T06:05:25;16.40;79.40
38265;DHT22;24062;47.480;8.768;2022-09-09T06:07:55;16.50;79.70
38265;DHT22;24062;47.480;8.768;2022-09-09T06:10:22;16.60;79.80
38265;DHT22;24062;47.480;8.768;2022-09-09T06:12:52;16.70;79.90
38265;DHT22;24062;47.480;8.768;2022-09-09T06:15:18;16.70;79.90
38265;DHT22;24062;47.480;8.768;2022-09-09T06:17:45;16.80;80.10
38265;DHT22;24062;47.480;8.768;2022-09-09T06:20:12;17.00;80.30
38265;DHT22;24062;47.480;8.768;2022-09-09T06:22:39;17.00;80.30
38265;DHT22;24062;47.480;8.768;2022-09-09T06:25:09;17.10;80.30
38265;DHT22;24062;47.480;8.768;2022-09-09T06:27:36;17.20;80.20
38265;DHT22;24062;47.480;8.768;2022-09-09T06:30:04;17.20;80.20
38265;DHT22;24062;47.480;8.768;2022-09-09T06:32:31;17.30;80.40
38265;DHT22;24062;47.480;8.768;2022-09-09T06:35:00;17.30;80.60
38265;DHT22;24062;47.480;8.768;2022-09-09T06:37:28;17.60;81.00
38265;DHT22;24062;47.480;8.768;2022-09-09T06:39:54;17.60;80.80
38265;DHT22;24062;47.480;8.768;2022-09-09T06:42:23;17.70;80.60
38265;DHT22;24062;47.480;8.768;2022-09-09T06:44:50;17.70;80.20
38265;DHT22;24062;47.480;8.768;2022-09-09T06:47:17;17.60;79.90
38265;DHT22;24062;47.480;8.768;2022-09-09T06:49:44;17.60;80.10
38265;DHT22;24062;47.480;8.768;2022-09-09T06:52:11;17.50;80.20
38265;DHT22;24062;47.480;8.768;2022-09-09T06:54:38;17.40;80.20
38265;DHT22;24062;47.480;8.768;2022-09-09T06:57:05;17.40;80.40
38265;DHT22;24062;47.480;8.768;2022-09-09T06:59:34;17.40;80.70
38265;DHT22;24062;47.480;8.768;2022-09-09T07:02:01;17.40;80.80
38265;DHT22;24062;47.480;8.768;2022-09-09T07:04:28;17.40;80.80
38265;DHT22;24062;47.480;8.768;2022-09-09T07:06:55;17.40;81.10
38265;DHT22;24062;47.480;8.768;2022-09-09T07:09:22;17.40;81.00
38265;DHT22;24062;47.480;8.768;2022-09-09T07:11:51;17.40;81.00
38265;DHT22;24062;47.480;8.768;2022-09-09T07:14:19;17.40;81.20
38265;DHT22;24062;47.480;8.768;2022-09-09T07:16:48;17.50;81.70
38265;DHT22;24062;47.480;8.768;2022-09-09T07:19:16;17.80;82.30
38265;DHT22;24062;47.480;8.768;2022-09-09T07:21:43;18.00;81.90
38265;DHT22;24062;47.480;8.768;2022-09-09T07:24:11;18.10;81.50
38265;DHT22;24062;47.480;8.768;2022-09-09T07:26:38;18.00;81.00
38265;DHT22;24062;47.480;8.768;2022-09-09T07:29:06;18.00;81.10
38265;DHT22;24062;47.480;8.768;2022-09-09T07:31:36;18.00;81.30
38265;DHT22;24062;47.480;8.768;2022-09-09T07:34:05;18.00;81.70
38265;DHT22;24062;47.480;8.768;2022-09-09T07:36:34;18.30;82.60
38265;DHT22;24062;47.480;8.768;2022-09-09T07:39:03;18.80;83.80
38265;DHT22;24062;47.480;8.768;2022-09-09T07:41:33;19.30;83.60
38265;DHT22;24062;47.480;8.768;2022-09-09T07:44:04;19.50;82.60
38265;DHT22;24062;47.480;8.768;2022-09-09T07:46:32;19.60;82.20
38265;DHT22;24062;47.480;8.768;2022-09-09T07:48:59;19.60;81.70
38265;DHT22;24062;47.480;8.768;2022-09-09T07:51:29;19.60;81.30
38265;DHT22;24062;47.480;8.768;2022-09-09T07:53:58;19.70;81.60
38265;DHT22;24062;47.480;8.768;2022-09-09T07:56:26;19.70;81.40
38265;DHT22;24062;47.480;8.768;2022-09-09T07:58:54;19.80;81.10
38265;DHT22;24062;47.480;8.768;2022-09-09T08:01:23;19.80;81.10
38265;DHT22;24062;47.480;8.768;2022-09-09T08:03:54;19.90;81.10
38265;DHT22;24062;47.480;8.768;2022-09-09T08:06:21;20.10;80.80
38265;DHT22;24062;47.480;8.768;2022-09-09T08:08:52;20.10;80.50
38265;DHT22;24062;47.480;8.768;2022-09-09T08:11:22;20.20;80.20
38265;DHT22;24062;47.480;8.768;2022-09-09T08:13:50;20.40;80.40
38265;DHT22;24062;47.480;8.768;2022-09-09T08:16:19;20.60;80.10
38265;DHT22;24062;47.480;8.768;2022-09-09T08:18:47;20.80;79.80
38265;DHT22;24062;47.480;8.768;2022-09-09T08:21:16;20.90;79.70
38265;DHT22;24062;47.480;8.768;2022-09-09T08:23:45;21.10;78.70
38265;DHT22;24062;47.480;8.768;2022-09-09T08:26:16;21.20;78.50
38265;DHT22;24062;47.480;8.768;2022-09-09T08:28:43;21.50;78.90
38265;DHT22;24062;47.480;8.768;2022-09-09T08:31:12;21.90;79.10
38265;DHT22;24062;47.480;8.768;2022-09-09T08:33:40;22.10;77.40
38265;DHT22;24062;47.480;8.768;2022-09-09T08:36:10;22.10;77.30
38265;DHT22;24062;47.480;8.768;2022-09-09T08:38:38;22.10;76.80
38265;DHT22;24062;47.480;8.768;2022-09-09T08:41:35;22.20;76.80
38265;DHT22;24062;47.480;8.768;2022-09-09T08:44:07;22.30;76.10
38265;DHT22;24062;47.480;8.768;2022-09-09T08:46:44;22.50;75.70
38265;DHT22;24062;47.480;8.768;2022-09-09T08:49:45;22.30;74.50
38265;DHT22;24062;47.480;8.768;2022-09-09T08:52:17;22.30;75.30
38265;DHT22;24062;47.480;8.768;2022-09-09T08:54:46;22.50;75.30
38265;DHT22;24062;47.480;8.768;2022-09-09T08:57:20;22.60;74.80
38265;DHT22;24062;47.480;8.768;2022-09-09T08:59:52;22.50;73.60
38265;DHT22;24062;47.480;8.768;2022-09-09T09:02:24;22.30;73.00
38265;DHT22;24062;47.480;8.768;2022-09-09T09:05:03;22.10;73.30
38265;DHT22;24062;47.480;8.768;2022-09-09T09:07:44;22.10;73.40
38265;DHT22;24062;47.480;8.768;2022-09-09T09:10:20;22.00;73.20
38265;DHT22;24062;47.480;8.768;2022-09-09T09:12:50;21.90;73.00
38265;DHT22;24062;47.480;8.768;2022-09-09T09:15:21;21.80;72.80
38265;DHT22;24062;47.480;8.768;2022-09-09T09:17:49;21.50;72.20
38265;DHT22;24062;47.480;8.768;2022-09-09T09:20:20;21.40;72.60
38265;DHT22;24062;47.480;8.768;2022-09-09T09:22:50;21.10;72.00
38265;DHT22;24062;47.480;8.768;2022-09-09T09:25:19;21.10;73.40
38265;DHT22;24062;47.480;8.768;2022-09-09T09:27:56;21.20;73.40
38265;DHT22;24062;47.480;8.768;2022-09-09T09:30:31;21.50;73.90
38265;DHT22;24062;47.480;8.768;2022-09-09T09:33:02;22.10;75.10
38265;DHT22;24062;47.480;8.768;2022-09-09T09:35:32;22.90;75.40
38265;DHT22;24062;47.480;8.768;2022-09-09T09:37:59;23.20;73.10
38265;DHT22;24062;47.480;8.768;2022-09-09T09:40:27;23.40;73.30
38265;DHT22;24062;47.480;8.768;2022-09-09T09:42:58;24.00;73.80
38265;DHT22;24062;47.480;8.768;2022-09-09T09:45:33;24.50;73.30
38265;DHT22;24062;47.480;8.768;2022-09-09T09:48:02;24.80;72.60
38265;DHT22;24062;47.480;8.768;2022-09-09T09:50:30;25.00;71.80
38265;DHT22;24062;47.480;8.768;2022-09-09T09:53:00;24.90;70.70
38265;DHT22;24062;47.480;8.768;2022-09-09T09:55:28;24.70;67.10
38265;DHT22;24062;47.480;8.768;2022-09-09T09:58:03;24.30;67.30
38265;DHT22;24062;47.480;8.768;2022-09-09T10:00:31;24.00;65.00
38265;DHT22;24062;47.480;8.768;2022-09-09T10:03:00;23.70;65.30
38265;DHT22;24062;47.480;8.768;2022-09-09T10:05:28;23.50;65.00
38265;DHT22;24062;47.480;8.768;2022-09-09T10:08:05;23.40;65.60
38265;DHT22;24062;47.480;8.768;2022-09-09T10:11:02;23.60;65.70
38265;DHT22;24062;47.480;8.768;2022-09-09T10:13:39;24.10;66.80
38265;DHT22;24062;47.480;8.768;2022-09-09T10:16:22;24.90;67.50
38265;DHT22;24062;47.480;8.768;2022-09-09T10:18:58;25.30;65.10
38265;DHT22;24062;47.480;8.768;2022-09-09T10:24:52;25.10;62.60
38265;DHT22;24062;47.480;8.768;2022-09-09T10:27:27;24.60;60.80
38265;DHT22;24062;47.480;8.768;2022-09-09T10:30:11;24.10;60.30
38265;DHT22;24062;47.480;8.768;2022-09-09T10:32:41;23.60;59.70
38265;DHT22;24062;47.480;8.768;2022-09-09T10:35:13;23.30;59.60
38265;DHT22;24062;47.480;8.768;2022-09-09T10:37:54;23.30;59.70
38265;DHT22;24062;47.480;8.768;2022-09-09T10:40:30;23.30;59.20
38265;DHT22;24062;47.480;8.768;2022-09-09T10:43:09;23.00;58.80
38265;DHT22;24062;47.480;8.768;2022-09-09T10:45:48;23.10;58.90
38265;DHT22;24062;47.480;8.768;2022-09-09T10:48:30;23.20;58.90
38265;DHT22;24062;47.480;8.768;2022-09-09T10:51:06;23.30;58.90
38265;DHT22;24062;47.480;8.768;2022-09-09T10:53:45;23.30;58.40
38265;DHT22;24062;47.480;8.768;2022-09-09T10:56:16;23.10;58.00
38265;DHT22;24062;47.480;8.768;2022-09-09T10:58:49;22.80;57.90
38265;DHT22;24062;47.480;8.768;2022-09-09T11:01:22;22.50;57.90
38265;DHT22;24062;47.480;8.768;2022-09-09T11:03:54;22.20;57.80
38265;DHT22;24062;47.480;8.768;2022-09-09T11:06:30;21.90;58.10
38265;DHT22;24062;47.480;8.768;2022-09-09T11:09:00;22.00;59.10
38265;DHT22;24062;47.480;8.768;2022-09-09T11:11:32;22.50;59.70
38265;DHT22;24062;47.480;8.768;2022-09-09T11:14:02;22.60;58.80
38265;DHT22;24062;47.480;8.768;2022-09-09T11:16:35;22.70;59.60
38265;DHT22;24062;47.480;8.768;2022-09-09T11:19:13;22.90;59.00
38265;DHT22;24062;47.480;8.768;2022-09-09T11:21:45;23.30;59.70
38265;DHT22;24062;47.480;8.768;2022-09-09T11:24:16;23.70;59.50
38265;DHT22;24062;47.480;8.768;2022-09-09T11:26:49;23.90;59.30
38265;DHT22;24062;47.480;8.768;2022-09-09T11:29:55;23.90;58.30
38265;DHT22;24062;47.480;8.768;2022-09-09T11:32:44;24.00;58.80
38265;DHT22;24062;47.480;8.768;2022-09-09T11:35:30;24.40;59.60
38265;DHT22;24062;47.480;8.768;2022-09-09T11:38:19;24.90;59.10
38265;DHT22;24062;47.480;8.768;2022-09-09T11:40:47;25.00;58.00
38265;DHT22;24062;47.480;8.768;2022-09-09T11:43:24;25.00;57.90
38265;DHT22;24062;47.480;8.768;2022-09-09T11:45:54;24.90;57.80
38265;DHT22;24062;47.480;8.768;2022-09-09T11:48:32;25.00;58.20
38265;DHT22;24062;47.480;8.768;2022-09-09T11:51:02;25.00;57.70
38265;DHT22;24062;47.480;8.768;2022-09-09T11:53:31;25.20;58.70
38265;DHT22;24062;47.480;8.768;2022-09-09T11:56:04;25.50;57.80
38265;DHT22;24062;47.480;8.768;2022-09-09T11:58:38;25.50;57.20
38265;DHT22;24062;47.480;8.768;2022-09-09T12:01:30;26.20;58.40
38265;DHT22;24062;47.480;8.768;2022-09-09T12:04:21;27.50;58.50
38265;DHT22;24062;47.480;8.768;2022-09-09T12:06:56;28.40;56.40
38265;DHT22;24062;47.480;8.768;2022-09-09T12:09:36;28.20;54.30
38265;DHT22;24062;47.480;8.768;2022-09-09T12:12:25;28.00;54.30
38265;DHT22;24062;47.480;8.768;2022-09-09T12:15:21;28.20;54.30
38265;DHT22;24062;47.480;8.768;2022-09-09T12:17:50;28.30;54.10
38265;DHT22;24062;47.480;8.768;2022-09-09T12:20:21;28.40;54.20
38265;DHT22;24062;47.480;8.768;2022-09-09T12:23:11;28.80;54.40
38265;DHT22;24062;47.480;8.768;2022-09-09T12:25:52;28.90;52.70
38265;DHT22;24062;47.480;8.768;2022-09-09T12:28:24;28.80;53.00
38265;DHT22;24062;47.480;8.768;2022-09-09T12:30:58;28.70;53.00
38265;DHT22;24062;47.480;8.768;2022-09-09T12:33:33;29.00;53.80
38265;DHT22;24062;47.480;8.768;2022-09-09T12:36:03;29.60;53.80
38265;DHT22;24062;47.480;8.768;2022-09-09T12:38:34;30.30;54.40
38265;DHT22;24062;47.480;8.768;2022-09-09T12:41:01;30.70;52.10
38265;DHT22;24062;47.480;8.768;2022-09-09T12:43:29;30.50;53.00
38265;DHT22;24062;47.480;8.768;2022-09-09T12:45:57;30.40;52.10
38265;DHT22;24062;47.480;8.768;2022-09-09T12:48:32;30.20;50.20
38265;DHT22;24062;47.480;8.768;2022-09-09T12:51:02;29.70;49.20
38265;DHT22;24062;47.480;8.768;2022-09-09T12:53:34;29.90;50.30
38265;DHT22;24062;47.480;8.768;2022-09-09T12:56:05;31.10;52.00
38265;DHT22;24062;47.480;8.768;2022-09-09T12:58:33;32.30;52.60
38265;DHT22;24062;47.480;8.768;2022-09-09T13:01:02;33.20;48.60
38265;DHT22;24062;47.480;8.768;2022-09-09T13:03:31;34.30;49.40
38265;DHT22;24062;47.480;8.768;2022-09-09T13:06:09;35.90;47.50
38265;DHT22;24062;47.480;8.768;2022-09-09T13:08:38;37.50;45.60
38265;DHT22;24062;47.480;8.768;2022-09-09T13:11:08;38.60;41.70
38265;DHT22;24062;47.480;8.768;2022-09-09T13:13:38;39.20;39.20
38265;DHT22;24062;47.480;8.768;2022-09-09T13:16:07;37.30;35.80
38265;DHT22;24062;47.480;8.768;2022-09-09T13:18:44;35.90;37.40
38265;DHT22;24062;47.480;8.768;2022-09-09T13:21:12;34.50;36.80
38265;DHT22;24062;47.480;8.768;2022-09-09T13:23:41;33.10;37.10
38265;DHT22;24062;47.480;8.768;2022-09-09T13:26:21;32.70;39.10
38265;DHT22;24062;47.480;8.768;2022-09-09T13:28:49;33.50;39.00
38265;DHT22;24062;47.480;8.768;2022-09-09T13:31:21;33.00;36.70
38265;DHT22;24062;47.480;8.768;2022-09-09T13:33:48;31.80;36.90
38265;DHT22;24062;47.480;8.768;2022-09-09T13:36:15;31.30;38.20
38265;DHT22;24062;47.480;8.768;2022-09-09T13:38:56;34.40;41.00
38265;DHT22;24062;47.480;8.768;2022-09-09T13:41:28;33.50;35.70
38265;DHT22;24062;47.480;8.768;2022-09-09T13:43:57;31.90;36.10
38265;DHT22;24062;47.480;8.768;2022-09-09T13:46:32;32.50;40.70
38265;DHT22;24062;47.480;8.768;2022-09-09T13:49:01;36.50;41.80
38265;DHT22;24062;47.480;8.768;2022-09-09T13:51:34;38.40;37.10
38265;DHT22;24062;47.480;8.768;2022-09-09T13:54:04;40.40;38.90
38265;DHT22;24062;47.480;8.768;2022-09-09T13:56:32;43.30;38.70
38265;DHT22;24062;47.480;8.768;2022-09-09T13:58:59;43.20;34.70
38265;DHT22;24062;47.480;8.768;2022-09-09T14:01:25;40.30;32.70
38265;DHT22;24062;47.480;8.768;2022-09-09T14:03:53;38.30;33.80
38265;DHT22;24062;47.480;8.768;2022-09-09T14:06:21;39.80;36.00
38265;DHT22;24062;47.480;8.768;2022-09-09T14:08:49;42.50;36.90
38265;DHT22;24062;47.480;8.768;2022-09-09T14:11:18;44.80;35.50
38265;DHT22;24062;47.480;8.768;2022-09-09T14:13:46;45.90;33.70
38265;DHT22;24062;47.480;8.768;2022-09-09T14:16:15;44.30;30.80
38265;DHT22;24062;47.480;8.768;2022-09-09T14:18:43;41.60;30.20
38265;DHT22;24062;47.480;8.768;2022-09-09T14:21:10;41.50;32.30
38265;DHT22;24062;47.480;8.768;2022-09-09T14:23:38;43.80;33.20
38265;DHT22;24062;47.480;8.768;2022-09-09T14:26:06;44.70;31.70
38265;DHT22;24062;47.480;8.768;2022-09-09T14:28:35;45.30;30.00
38265;DHT22;24062;47.480;8.768;2022-09-09T14:31:03;44.90;29.70
38265;DHT22;24062;47.480;8.768;2022-09-09T14:33:30;42.20;28.50
38265;DHT22;24062;47.480;8.768;2022-09-09T14:35:58;38.70;27.60
38265;DHT22;24062;47.480;8.768;2022-09-09T14:38:25;35.80;28.30
38265;DHT22;24062;47.480;8.768;2022-09-09T14:40:55;34.20;29.20
38265;DHT22;24062;47.480;8.768;2022-09-09T14:43:22;32.90;29.60
38265;DHT22;24062;47.480;8.768;2022-09-09T14:45:50;32.20;30.00
38265;DHT22;24062;47.480;8.768;2022-09-09T14:48:18;31.70;30.50
38265;DHT22;24062;47.480;8.768;2022-09-09T14:50:44;31.60;32.30
38265;DHT22;24062;47.480;8.768;2022-09-09T14:53:11;33.70;32.70
38265;DHT22;24062;47.480;8.768;2022-09-09T14:55:38;33.20;31.00
38265;DHT22;24062;47.480;8.768;2022-09-09T14:58:05;32.80;33.40
38265;DHT22;24062;47.480;8.768;2022-09-09T15:00:32;34.90;34.90
38265;DHT22;24062;47.480;8.768;2022-09-09T15:03:00;37.30;33.50
38265;DHT22;24062;47.480;8.768;2022-09-09T15:05:27;39.10;33.00
38265;DHT22;24062;47.480;8.768;2022-09-09T15:07:54;40.20;31.50
38265;DHT22;24062;47.480;8.768;2022-09-09T15:10:22;39.50;30.00
38265;DHT22;24062;47.480;8.768;2022-09-09T15:12:49;37.40;29.00
38265;DHT22;24062;47.480;8.768;2022-09-09T15:15:16;34.60;29.20
38265;DHT22;24062;47.480;8.768;2022-09-09T15:17:42;33.70;32.80
38265;DHT22;24062;47.480;8.768;2022-09-09T15:20:11;36.40;34.20
38265;DHT22;24062;47.480;8.768;2022-09-09T15:22:38;38.40;32.80
38265;DHT22;24062;47.480;8.768;2022-09-09T15:25:06;39.90;32.30
38265;DHT22;24062;47.480;8.768;2022-09-09T15:27:33;41.00;31.90
38265;DHT22;24062;47.480;8.768;2022-09-09T15:30:00;41.40;30.30
38265;DHT22;24062;47.480;8.768;2022-09-09T15:32:27;41.60;29.90
38265;DHT22;24062;47.480;8.768;2022-09-09T15:34:54;41.60;29.80
38265;DHT22;24062;47.480;8.768;2022-09-09T15:37:23;41.70;29.50
38265;DHT22;24062;47.480;8.768;2022-09-09T15:39:49;41.80;29.50
38265;DHT22;24062;47.480;8.768;2022-09-09T15:42:16;42.00;29.60
38265;DHT22;24062;47.480;8.768;2022-09-09T15:44:43;42.00;28.80
38265;DHT22;24062;47.480;8.768;2022-09-09T15:47:11;41.80;28.90
38265;DHT22;24062;47.480;8.768;2022-09-09T15:49:39;42.40;29.70
38265;DHT22;24062;47.480;8.768;2022-09-09T15:52:06;42.30;28.60
38265;DHT22;24062;47.480;8.768;2022-09-09T15:54:35;40.20;27.60
38265;DHT22;24062;47.480;8.768;2022-09-09T15:57:07;38.20;29.10